createdAt,value
2016-12-23T00:00:42.595Z,0
2016-12-23T00:01:42.498Z,0
2016-12-23T00:02:42.442Z,0
2016-12-23T00:03:42.521Z,0
2016-12-23T00:04:42.710Z,0
2016-12-23T00:05:42.682Z,0
2016-12-23T00:06:42.668Z,0
2016-12-23T00:07:43.570Z,0
2016-12-23T00:08:42.580Z,0
2016-12-23T00:09:42.684Z,0
2016-12-23T00:10:42.755Z,0
2016-12-23T00:11:42.741Z,0
2016-12-23T00:12:42.446Z,0
2016-12-23T00:13:42.693Z,0
2016-12-23T00:14:42.799Z,0
2016-12-23T00:15:42.567Z,0
2016-12-23T00:16:42.563Z,0
2016-12-23T00:17:42.610Z,0
2016-12-23T00:18:42.663Z,0
2016-12-23T00:19:42.710Z,0
2016-12-23T00:20:42.658Z,0
2016-12-23T00:21:42.609Z,0
2016-12-23T00:22:42.694Z,0
2016-12-23T00:23:42.503Z,0
2016-12-23T00:24:42.623Z,0
2016-12-23T00:25:42.482Z,0
2016-12-23T00:26:42.610Z,0
2016-12-23T00:27:42.604Z,0
2016-12-23T00:28:42.501Z,0
2016-12-23T00:29:42.438Z,0
2016-12-23T00:30:42.564Z,0
2016-12-23T00:31:42.431Z,0
2016-12-23T00:32:42.606Z,0
2016-12-23T00:33:42.539Z,0
2016-12-23T00:34:42.498Z,0
2016-12-23T00:35:42.480Z,0
2016-12-23T00:36:42.498Z,0
2016-12-23T00:37:42.309Z,0
2016-12-23T00:38:42.360Z,0
2016-12-23T00:39:42.693Z,0
2016-12-23T00:40:42.579Z,0
2016-12-23T00:41:42.521Z,0
2016-12-23T00:42:42.561Z,0
2016-12-23T00:43:42.454Z,0
2016-12-23T00:44:42.460Z,0
2016-12-23T00:45:42.489Z,0
2016-12-23T00:46:42.531Z,0
2016-12-23T00:47:42.487Z,0
2016-12-23T00:48:42.617Z,0
2016-12-23T00:49:43.295Z,0
2016-12-23T00:50:42.643Z,0
2016-12-23T00:51:42.527Z,0
2016-12-23T00:52:42.591Z,0
2016-12-23T00:53:42.489Z,0
2016-12-23T00:54:42.622Z,0
2016-12-23T00:55:42.518Z,0
2016-12-23T00:56:42.836Z,0
2016-12-23T00:57:42.700Z,0
2016-12-23T00:58:42.612Z,0
2016-12-23T00:59:42.680Z,0
2016-12-23T01:00:42.605Z,0
2016-12-23T01:01:42.363Z,0
2016-12-23T01:02:42.474Z,0
2016-12-23T01:03:42.537Z,0
2016-12-23T01:04:42.560Z,0
2016-12-23T01:05:43.672Z,0
2016-12-23T01:06:43.850Z,0
2016-12-23T01:07:43.526Z,0
2016-12-23T01:08:43.312Z,0
2016-12-23T01:09:43.306Z,0
2016-12-23T01:10:42.488Z,0
2016-12-23T01:11:42.456Z,0
2016-12-23T01:12:42.399Z,0
2016-12-23T01:13:42.652Z,0
2016-12-23T01:14:42.468Z,0
2016-12-23T01:15:42.739Z,0
2016-12-23T01:16:42.545Z,0
2016-12-23T01:17:42.434Z,0
2016-12-23T01:18:42.701Z,0
2016-12-23T01:19:42.699Z,0
2016-12-23T01:20:42.523Z,0
2016-12-23T01:21:42.602Z,0
2016-12-23T01:22:42.613Z,0
2016-12-23T01:23:42.471Z,0
2016-12-23T01:24:42.471Z,0
2016-12-23T01:25:42.513Z,0
2016-12-23T01:26:42.284Z,0
2016-12-23T01:27:42.451Z,0
2016-12-23T01:28:42.321Z,0
2016-12-23T01:29:42.406Z,0
2016-12-23T01:30:42.619Z,0
2016-12-23T01:31:42.496Z,0
2016-12-23T01:32:44.140Z,0
2016-12-23T01:33:42.395Z,0
2016-12-23T01:34:42.481Z,0
2016-12-23T01:35:42.289Z,0
2016-12-23T01:36:42.463Z,0
2016-12-23T01:37:42.501Z,0
2016-12-23T01:38:42.649Z,0
2016-12-23T01:39:42.428Z,0
2016-12-23T01:40:42.518Z,0
2016-12-23T01:41:42.523Z,0
2016-12-23T01:42:42.378Z,0
2016-12-23T01:43:42.370Z,0
2016-12-23T01:44:42.510Z,0
2016-12-23T01:45:42.485Z,0
2016-12-23T01:46:42.529Z,0
2016-12-23T01:47:42.650Z,0
2016-12-23T01:48:42.553Z,0
2016-12-23T01:49:42.627Z,0
2016-12-23T01:50:42.829Z,0
2016-12-23T01:51:42.449Z,0
2016-12-23T01:52:42.350Z,0
2016-12-23T01:53:42.462Z,0
2016-12-23T01:54:42.538Z,0
2016-12-23T01:55:42.359Z,0
2016-12-23T01:56:42.471Z,0
2016-12-23T01:57:42.311Z,0
2016-12-23T01:58:42.502Z,0
2016-12-23T01:59:42.477Z,0
2016-12-23T02:00:42.530Z,0
2016-12-23T02:01:42.350Z,0
2016-12-23T02:02:42.413Z,0
2016-12-23T02:03:42.428Z,0
2016-12-23T02:04:42.564Z,0
2016-12-23T02:05:42.551Z,0
2016-12-23T02:06:42.620Z,0
2016-12-23T02:07:42.517Z,0
2016-12-23T02:08:42.387Z,0
2016-12-23T02:09:42.599Z,0
2016-12-23T02:10:42.330Z,0
2016-12-23T02:11:42.439Z,0
2016-12-23T02:12:42.320Z,0
2016-12-23T02:13:42.370Z,0
2016-12-23T02:14:42.528Z,0
2016-12-23T02:15:42.328Z,0
2016-12-23T02:16:42.519Z,0
2016-12-23T02:17:42.516Z,0
2016-12-23T02:18:42.548Z,0
2016-12-23T02:19:42.549Z,0
2016-12-23T02:20:42.584Z,0
2016-12-23T02:21:42.536Z,0
2016-12-23T02:22:42.567Z,0
2016-12-23T02:23:42.672Z,0
2016-12-23T02:24:42.458Z,0
2016-12-23T02:25:42.464Z,0
2016-12-23T02:26:42.523Z,0
2016-12-23T02:27:42.423Z,0
2016-12-23T02:28:42.345Z,0
2016-12-23T02:29:42.338Z,0
2016-12-23T02:30:42.487Z,0
2016-12-23T02:31:42.448Z,0
2016-12-23T02:32:42.576Z,0
2016-12-23T02:33:42.602Z,0
2016-12-23T02:34:42.407Z,0
2016-12-23T02:35:42.412Z,0
2016-12-23T02:36:42.479Z,0
2016-12-23T02:37:42.399Z,0
2016-12-23T02:38:42.433Z,0
2016-12-23T02:39:42.401Z,0
2016-12-23T02:40:42.559Z,0
2016-12-23T02:41:42.413Z,0
2016-12-23T02:42:42.346Z,0
2016-12-23T02:43:42.469Z,0
2016-12-23T02:44:42.528Z,0
2016-12-23T02:45:42.334Z,0
2016-12-23T02:46:42.361Z,0
2016-12-23T02:47:42.381Z,0
2016-12-23T02:48:42.586Z,0
2016-12-23T02:49:42.711Z,0
2016-12-23T02:50:42.550Z,0
2016-12-23T02:51:42.369Z,0
2016-12-23T02:52:42.519Z,0
2016-12-23T02:53:42.249Z,0
2016-12-23T02:54:42.444Z,0
2016-12-23T02:55:42.500Z,0
2016-12-23T02:56:42.517Z,0
2016-12-23T02:57:42.459Z,0
2016-12-23T02:58:42.414Z,0
2016-12-23T02:59:42.479Z,0
2016-12-23T03:00:42.421Z,0
2016-12-23T03:01:42.565Z,0
2016-12-23T03:02:42.547Z,0
2016-12-23T03:03:42.395Z,0
2016-12-23T03:04:42.552Z,0
2016-12-23T03:05:43.238Z,0
2016-12-23T03:06:42.541Z,0
2016-12-23T03:07:42.573Z,0
2016-12-23T03:08:42.441Z,0
2016-12-23T03:09:42.580Z,0
2016-12-23T03:10:42.371Z,0
2016-12-23T03:11:42.400Z,0
2016-12-23T03:12:42.489Z,0
2016-12-23T03:13:42.343Z,0
2016-12-23T03:14:42.520Z,0
2016-12-23T03:15:42.357Z,0
2016-12-23T03:16:42.534Z,0
2016-12-23T03:17:42.681Z,0
2016-12-23T03:18:42.614Z,0
2016-12-23T03:19:42.490Z,0
2016-12-23T03:20:42.487Z,0
2016-12-23T03:21:42.550Z,0
2016-12-23T03:22:42.408Z,0
2016-12-23T03:23:42.545Z,0
2016-12-23T03:24:42.586Z,0
2016-12-23T03:25:42.545Z,0
2016-12-23T03:26:42.570Z,0
2016-12-23T03:27:42.569Z,0
2016-12-23T03:28:42.579Z,0
2016-12-23T03:29:42.380Z,0
2016-12-23T03:30:42.545Z,0
2016-12-23T03:31:42.488Z,0
2016-12-23T03:32:42.370Z,0
2016-12-23T03:33:42.522Z,0
2016-12-23T03:34:42.399Z,0
2016-12-23T03:35:42.553Z,0
2016-12-23T03:36:42.542Z,0
2016-12-23T03:37:42.428Z,0
2016-12-23T03:38:42.619Z,0
2016-12-23T03:39:42.497Z,0
2016-12-23T03:40:42.663Z,0
2016-12-23T03:41:42.504Z,0
2016-12-23T03:42:42.472Z,0
2016-12-23T03:43:43.467Z,0
2016-12-23T03:44:42.742Z,0
2016-12-23T03:45:43.370Z,0
2016-12-23T03:46:42.591Z,0
2016-12-23T03:47:42.418Z,0
2016-12-23T03:48:42.559Z,0
2016-12-23T03:49:42.689Z,0
2016-12-23T03:50:43.895Z,0
2016-12-23T03:51:42.411Z,0
2016-12-23T03:52:42.655Z,0
2016-12-23T03:53:42.629Z,0
2016-12-23T03:59:00.107Z,0
2016-12-23T03:59:11.632Z,0
2016-12-23T04:00:11.481Z,0
2016-12-23T04:01:11.651Z,0
2016-12-23T04:02:11.330Z,0
2016-12-23T04:03:11.288Z,0
2016-12-23T04:04:11.366Z,0
2016-12-23T04:05:11.714Z,0
2016-12-23T04:06:12.230Z,0
2016-12-23T04:07:13.830Z,0
2016-12-23T04:08:11.422Z,0
2016-12-23T04:09:11.346Z,0
2016-12-23T04:10:11.613Z,0
2016-12-23T04:11:11.372Z,0
2016-12-23T04:12:11.365Z,0
2016-12-23T04:13:11.477Z,0
2016-12-23T04:14:11.360Z,0
2016-12-23T04:15:11.450Z,0
2016-12-23T04:16:11.683Z,0
2016-12-23T04:17:11.512Z,0
2016-12-23T04:18:11.632Z,0
2016-12-23T04:19:11.522Z,0
2016-12-23T04:20:11.492Z,0
2016-12-23T04:21:11.354Z,0
2016-12-23T04:22:11.502Z,0
2016-12-23T04:23:11.414Z,0
2016-12-23T04:24:11.362Z,0
2016-12-23T04:25:11.450Z,0
2016-12-23T04:26:11.330Z,0
2016-12-23T04:27:11.533Z,0
2016-12-23T04:28:11.462Z,0
2016-12-23T04:29:11.616Z,0
2016-12-23T04:30:11.431Z,0
2016-12-23T04:31:11.380Z,0
2016-12-23T04:32:11.441Z,0
2016-12-23T04:33:11.465Z,0
2016-12-23T04:34:12.118Z,0
2016-12-23T04:35:12.024Z,0
2016-12-23T04:36:11.728Z,0
2016-12-23T04:37:11.547Z,0
2016-12-23T04:38:11.623Z,0
2016-12-23T04:39:11.588Z,0
2016-12-23T04:40:11.684Z,0
2016-12-23T04:41:11.517Z,0
2016-12-23T04:42:11.625Z,0
2016-12-23T04:43:11.438Z,0
2016-12-23T04:44:11.469Z,0
2016-12-23T04:45:11.654Z,0
2016-12-23T04:46:11.476Z,0
2016-12-23T04:47:11.620Z,0
2016-12-23T04:48:11.489Z,0
2016-12-23T04:49:11.669Z,0
2016-12-23T04:50:11.579Z,0
2016-12-23T04:51:11.600Z,0
2016-12-23T04:52:11.590Z,0
2016-12-23T04:53:11.600Z,0
2016-12-23T04:54:11.508Z,0
2016-12-23T04:55:11.550Z,0
2016-12-23T04:56:11.585Z,0
2016-12-23T04:57:11.486Z,0
2016-12-23T04:58:11.706Z,0
2016-12-23T04:59:11.433Z,0
2016-12-23T05:00:11.638Z,0
2016-12-23T05:01:11.611Z,0
2016-12-23T05:02:11.716Z,0
2016-12-23T05:03:11.520Z,0
2016-12-23T05:04:11.571Z,0
2016-12-23T05:05:11.768Z,0
2016-12-23T05:06:11.567Z,0
2016-12-23T05:07:11.669Z,0
2016-12-23T05:08:11.744Z,0
2016-12-23T05:09:11.603Z,0
2016-12-23T05:10:11.501Z,0
2016-12-23T05:11:11.620Z,0
2016-12-23T05:12:11.727Z,0
2016-12-23T05:13:11.576Z,0
2016-12-23T05:14:11.551Z,0
2016-12-23T05:15:11.646Z,0
2016-12-23T05:16:11.586Z,0
2016-12-23T05:17:11.692Z,0
2016-12-23T05:18:11.697Z,0
2016-12-23T05:19:11.757Z,0
2016-12-23T05:20:11.921Z,0
2016-12-23T05:21:11.788Z,0
2016-12-23T05:22:11.740Z,0
2016-12-23T05:23:11.725Z,0
2016-12-23T05:24:11.665Z,0
2016-12-23T05:25:11.686Z,0
2016-12-23T05:26:22.207Z,0
2016-12-23T05:27:11.745Z,0
2016-12-23T05:28:11.637Z,0
2016-12-23T05:29:11.606Z,0
2016-12-23T05:30:11.553Z,0
2016-12-23T05:31:11.700Z,0
2016-12-23T05:32:12.215Z,0
2016-12-23T05:33:11.573Z,0
2016-12-23T05:34:11.711Z,0
2016-12-23T05:35:11.750Z,0
2016-12-23T05:36:11.490Z,0
2016-12-23T05:37:11.783Z,0
2016-12-23T05:38:12.705Z,0
2016-12-23T05:39:11.740Z,0
2016-12-23T05:40:11.761Z,0
2016-12-23T05:41:11.641Z,0
2016-12-23T05:42:11.968Z,0
2016-12-23T05:43:11.783Z,0
2016-12-23T05:44:11.584Z,0
2016-12-23T05:45:11.791Z,0
2016-12-23T05:46:11.890Z,0
2016-12-23T05:47:11.576Z,0
2016-12-23T05:48:12.401Z,0
2016-12-23T05:49:11.647Z,0
2016-12-23T05:50:11.791Z,0
2016-12-23T05:51:11.741Z,0
2016-12-23T05:52:11.630Z,0
2016-12-23T05:53:11.777Z,0
2016-12-23T05:54:11.630Z,0
2016-12-23T05:55:11.629Z,0
2016-12-23T05:56:11.601Z,0
2016-12-23T05:57:12.044Z,0
2016-12-23T05:58:11.804Z,0
2016-12-23T05:59:11.872Z,0
2016-12-23T06:00:11.854Z,0
2016-12-23T06:01:11.941Z,0
2016-12-23T06:02:11.804Z,0
2016-12-23T06:03:11.794Z,0
2016-12-23T06:04:11.758Z,0
2016-12-23T06:05:11.767Z,0
2016-12-23T06:06:11.687Z,0
2016-12-23T06:07:11.732Z,0
2016-12-23T06:08:11.753Z,0
2016-12-23T06:09:12.173Z,0
2016-12-23T06:10:11.531Z,0
2016-12-23T06:11:11.650Z,0
2016-12-23T06:12:11.614Z,0
2016-12-23T06:13:11.784Z,0
2016-12-23T06:14:12.588Z,0
2016-12-23T06:15:11.991Z,0
2016-12-23T06:16:11.667Z,0
2016-12-23T06:17:11.958Z,0
2016-12-23T06:18:11.651Z,0
2016-12-23T06:19:11.749Z,0
2016-12-23T06:20:11.749Z,0
2016-12-23T06:21:11.815Z,0
2016-12-23T06:22:11.788Z,0
2016-12-23T06:23:12.015Z,0
2016-12-23T06:24:11.924Z,0
2016-12-23T06:25:11.888Z,0
2016-12-23T06:26:11.921Z,0
2016-12-23T06:27:11.747Z,0
2016-12-23T06:28:11.748Z,0
2016-12-23T06:29:11.727Z,0
2016-12-23T06:30:12.490Z,0
2016-12-23T06:31:11.804Z,0
2016-12-23T06:32:11.631Z,0
2016-12-23T06:33:11.651Z,0
2016-12-23T06:34:11.792Z,0
2016-12-23T06:35:11.812Z,0
2016-12-23T06:36:11.645Z,0
2016-12-23T06:37:11.669Z,0
2016-12-23T06:38:11.798Z,0
2016-12-23T06:39:11.692Z,0
2016-12-23T06:40:11.792Z,0
2016-12-23T06:41:11.943Z,0
2016-12-23T06:42:11.874Z,0
2016-12-23T06:43:11.785Z,0
2016-12-23T06:44:12.406Z,0
2016-12-23T06:45:11.954Z,0
2016-12-23T06:46:11.629Z,0
2016-12-23T06:47:11.820Z,0
2016-12-23T06:48:11.766Z,0
2016-12-23T06:49:11.721Z,0
2016-12-23T06:50:11.799Z,0
2016-12-23T06:51:11.823Z,0
2016-12-23T06:52:11.942Z,0
2016-12-23T06:53:12.052Z,0
2016-12-23T06:54:11.855Z,0
2016-12-23T06:55:11.746Z,0
2016-12-23T06:56:12.013Z,0
2016-12-23T06:57:11.591Z,0
2016-12-23T06:58:11.617Z,0
2016-12-23T06:59:11.773Z,0
2016-12-23T07:00:11.728Z,4
2016-12-23T07:01:11.991Z,0
2016-12-23T07:02:11.651Z,0
2016-12-23T07:03:11.826Z,4
2016-12-23T07:04:11.815Z,4
2016-12-23T07:05:11.934Z,4
2016-12-23T07:06:11.943Z,4
2016-12-23T07:07:11.833Z,4
2016-12-23T07:08:11.632Z,4
2016-12-23T07:09:11.662Z,4
2016-12-23T07:10:11.718Z,4
2016-12-23T07:11:12.004Z,8
2016-12-23T07:12:12.136Z,4
2016-12-23T07:13:12.020Z,8
2016-12-23T07:14:11.988Z,8
2016-12-23T07:15:11.889Z,8
2016-12-23T07:16:12.003Z,12
2016-12-23T07:17:11.861Z,12
2016-12-23T07:18:11.976Z,16
2016-12-23T07:19:11.933Z,20
2016-12-23T07:20:11.951Z,24
2016-12-23T07:21:12.069Z,28
2016-12-23T07:22:12.083Z,28
2016-12-23T07:23:11.983Z,36
2016-12-23T07:24:11.973Z,44
2016-12-23T07:25:12.921Z,52
2016-12-23T07:26:11.990Z,56
2016-12-23T07:27:12.087Z,60
2016-12-23T07:28:12.303Z,68
2016-12-23T07:29:12.408Z,72
2016-12-23T07:30:12.431Z,72
2016-12-23T07:31:12.050Z,72
2016-12-23T07:32:12.144Z,76
2016-12-23T07:33:11.971Z,84
2016-12-23T07:34:12.147Z,88
2016-12-23T07:35:12.181Z,88
2016-12-23T07:36:12.381Z,88
2016-12-23T07:37:12.063Z,80
2016-12-23T07:38:12.049Z,80
2016-12-23T07:39:12.021Z,88
2016-12-23T07:40:12.287Z,100
2016-12-23T07:41:12.059Z,112
2016-12-23T07:42:14.738Z,116
2016-12-23T07:43:13.924Z,120
2016-12-23T07:44:16.306Z,140
2016-12-23T07:45:14.597Z,148
2016-12-23T07:46:13.436Z,148
2016-12-23T07:47:13.018Z,188
2016-12-23T07:48:16.587Z,232
2016-12-23T07:49:16.637Z,264
2016-12-23T07:50:12.978Z,296
2016-12-23T07:51:12.674Z,320
2016-12-23T07:52:15.199Z,332
2016-12-23T07:53:14.134Z,340
2016-12-23T07:54:13.500Z,332
2016-12-23T07:55:13.865Z,308
2016-12-23T07:56:14.303Z,284
2016-12-23T07:57:14.594Z,280
2016-12-23T07:59:35.325Z,336
2016-12-23T08:00:34.965Z,380
2016-12-23T08:01:36.964Z,432
2016-12-23T08:02:33.859Z,476
2016-12-23T08:03:34.682Z,516
2016-12-23T08:04:35.720Z,508
2016-12-23T08:05:36.061Z,504
2016-12-23T08:06:36.874Z,516
2016-12-23T08:07:33.938Z,456
2016-12-23T08:08:34.631Z,360
2016-12-23T08:09:35.319Z,304
2016-12-23T08:10:37.579Z,352
2016-12-23T08:11:35.321Z,332
2016-12-23T08:12:34.127Z,360
2016-12-23T08:13:34.589Z,448
2016-12-23T08:14:35.031Z,480
2016-12-23T08:15:36.337Z,504
2016-12-23T08:16:35.554Z,564
2016-12-23T08:17:36.657Z,604
2016-12-23T08:18:35.079Z,628
2016-12-23T08:19:34.643Z,672
2016-12-23T08:20:33.927Z,708
2016-12-23T08:21:34.183Z,756
2016-12-23T08:22:34.000Z,804
2016-12-23T08:23:34.661Z,804
2016-12-23T08:24:34.056Z,788
2016-12-23T08:25:34.127Z,764
2016-12-23T08:26:34.074Z,732
2016-12-23T08:27:34.203Z,752
2016-12-23T08:28:34.089Z,812
2016-12-23T08:29:33.960Z,944
2016-12-23T08:30:34.014Z,1188
2016-12-23T08:31:34.301Z,1436
2016-12-23T08:32:34.394Z,1600
2016-12-23T08:33:34.658Z,1600
2016-12-23T08:34:34.395Z,1492
2016-12-23T08:35:34.381Z,1284
2016-12-23T08:36:33.982Z,1288
2016-12-23T08:37:33.985Z,1324
2016-12-23T08:38:34.088Z,1260
2016-12-23T08:39:34.420Z,1224
2016-12-23T08:40:35.483Z,1296
2016-12-23T08:41:35.114Z,1368
2016-12-23T08:42:34.062Z,1404
2016-12-23T08:43:35.864Z,1608
2016-12-23T08:44:35.128Z,1752
2016-12-23T08:45:34.115Z,1560
2016-12-23T08:46:35.029Z,1396
2016-12-23T08:47:34.599Z,1120
2016-12-23T08:48:34.066Z,1128
2016-12-23T08:49:34.253Z,1156
2016-12-23T08:50:33.871Z,1076
2016-12-23T08:51:34.027Z,1052
2016-12-23T08:52:34.160Z,1008
2016-12-23T08:53:34.059Z,1060
2016-12-23T08:54:33.913Z,1016
2016-12-23T08:55:34.344Z,940
2016-12-23T08:56:34.060Z,900
2016-12-23T08:57:34.381Z,992
2016-12-23T08:58:34.298Z,1152
2016-12-23T08:59:34.463Z,1272
2016-12-23T09:00:34.031Z,1332
2016-12-23T09:01:34.352Z,1320
2016-12-23T09:02:34.814Z,1216
2016-12-23T09:03:34.812Z,1100
2016-12-23T09:04:33.926Z,1012
2016-12-23T09:05:34.335Z,980
2016-12-23T09:06:34.274Z,972
2016-12-23T09:07:34.298Z,960
2016-12-23T09:08:34.227Z,1064
2016-12-23T09:09:34.328Z,1276
2016-12-23T09:10:34.721Z,1388
2016-12-23T09:11:34.210Z,1428
2016-12-23T09:12:34.242Z,1464
2016-12-23T09:13:34.140Z,1568
2016-12-23T09:14:34.117Z,1788
2016-12-23T09:15:34.224Z,1900
2016-12-23T09:16:34.013Z,1824
2016-12-23T09:17:34.072Z,1676
2016-12-23T09:18:33.971Z,1660
2016-12-23T09:19:33.923Z,1564
2016-12-23T09:20:34.079Z,1752
2016-12-23T09:21:34.036Z,1824
2016-12-23T09:22:33.999Z,1748
2016-12-23T09:23:33.991Z,1880
2016-12-23T09:24:34.250Z,2032
2016-12-23T09:25:34.564Z,1928
2016-12-23T09:26:34.416Z,1956
2016-12-23T09:27:35.243Z,1992
2016-12-23T09:28:34.438Z,1848
2016-12-23T09:29:34.323Z,2252
2016-12-23T09:30:34.293Z,2564
2016-12-23T09:31:34.491Z,2572
2016-12-23T09:32:34.418Z,2492
2016-12-23T09:33:34.356Z,2596
2016-12-23T09:34:34.497Z,2880
2016-12-23T09:35:34.241Z,3164
2016-12-23T09:36:34.214Z,3008
2016-12-23T09:37:34.382Z,2900
2016-12-23T09:38:34.522Z,3000
2016-12-23T09:39:35.471Z,3280
2016-12-23T09:40:34.371Z,3176
2016-12-23T09:41:34.267Z,2964
2016-12-23T09:42:34.282Z,2836
2016-12-23T09:43:35.187Z,2880
2016-12-23T09:44:34.418Z,2796
2016-12-23T09:45:34.486Z,2756
2016-12-23T09:46:34.335Z,2736
2016-12-23T09:47:34.241Z,2728
2016-12-23T09:48:34.330Z,2680
2016-12-23T09:49:34.296Z,2652
2016-12-23T09:50:34.378Z,2740
2016-12-23T09:51:34.297Z,2944
2016-12-23T09:52:34.089Z,3336
2016-12-23T09:53:34.299Z,3712
2016-12-23T09:54:34.151Z,4012
2016-12-23T09:55:34.401Z,4452
2016-12-23T09:56:34.222Z,4216
2016-12-23T09:57:34.074Z,2668
2016-12-23T09:58:34.070Z,2116
2016-12-23T09:59:34.089Z,2184
2016-12-23T10:00:34.211Z,2460
2016-12-23T10:01:34.233Z,3140
2016-12-23T10:02:34.548Z,3608
2016-12-23T10:03:34.311Z,4204
2016-12-23T10:04:34.041Z,4716
2016-12-23T10:05:34.457Z,4948
2016-12-23T10:06:33.978Z,4128
2016-12-23T10:07:34.093Z,3208
2016-12-23T10:08:34.309Z,2784
2016-12-23T10:09:34.231Z,2296
2016-12-23T10:10:34.691Z,1964
2016-12-23T10:11:33.944Z,2068
2016-12-23T10:12:34.040Z,2508
2016-12-23T10:13:34.201Z,2648
2016-12-23T10:14:34.220Z,2904
2016-12-23T10:15:34.527Z,3288
2016-12-23T10:16:35.843Z,3680
2016-12-23T10:17:34.381Z,4236
2016-12-23T10:18:34.226Z,4768
2016-12-23T10:19:34.312Z,5132
2016-12-23T10:20:34.769Z,5564
2016-12-23T10:21:35.030Z,6036
2016-12-23T10:22:34.546Z,6548
2016-12-23T10:23:34.685Z,6460
2016-12-23T10:24:34.182Z,5648
2016-12-23T10:25:34.470Z,5516
2016-12-23T10:26:34.254Z,5724
2016-12-23T10:27:34.651Z,6592
2016-12-23T10:28:34.284Z,6604
2016-12-23T10:29:34.211Z,6372
2016-12-23T10:30:34.349Z,6912
2016-12-23T10:31:34.248Z,7544
2016-12-23T10:32:34.249Z,8108
2016-12-23T10:33:34.126Z,8880
2016-12-23T10:34:34.340Z,9292
2016-12-23T10:35:35.019Z,9228
2016-12-23T10:36:34.261Z,8736
2016-12-23T10:37:34.066Z,7912
2016-12-23T10:38:34.149Z,6948
2016-12-23T10:39:34.240Z,6992
2016-12-23T10:40:34.507Z,7656
2016-12-23T10:41:34.453Z,7644
2016-12-23T10:42:34.045Z,7376
2016-12-23T10:43:34.115Z,7616
2016-12-23T10:44:34.849Z,8576
2016-12-23T10:45:34.147Z,10432
2016-12-23T10:46:34.523Z,9760
2016-12-23T10:47:35.604Z,9460
2016-12-23T10:48:34.225Z,9304
2016-12-23T10:49:34.257Z,10012
2016-12-23T10:50:34.026Z,11472
2016-12-23T10:51:34.029Z,12416
2016-12-23T10:52:34.219Z,11360
2016-12-23T10:53:34.152Z,10264
2016-12-23T10:54:34.193Z,9888
2016-12-23T10:55:34.121Z,9700
2016-12-23T10:56:33.959Z,9616
2016-12-23T10:57:34.047Z,9264
2016-12-23T10:58:34.101Z,9124
2016-12-23T10:59:34.434Z,9484
2016-12-23T11:00:34.365Z,9568
2016-12-23T11:01:34.019Z,8940
2016-12-23T11:02:34.294Z,7928
2016-12-23T11:11:21.885Z,8208
2016-12-23T11:11:42.168Z,8200
2016-12-23T11:12:42.515Z,8072
2016-12-23T11:13:41.922Z,7812
2016-12-23T11:14:41.943Z,7428
2016-12-23T11:15:42.153Z,7564
2016-12-23T11:16:42.101Z,8280
2016-12-23T11:17:42.199Z,8868
2016-12-23T11:18:42.784Z,9220
2016-12-23T11:19:42.167Z,9584
2016-12-23T11:20:42.181Z,9672
2016-12-23T11:21:42.323Z,9888
2016-12-23T11:22:42.231Z,10396
2016-12-23T11:23:42.194Z,11204
2016-12-23T11:24:42.098Z,12112
2016-12-23T11:25:41.973Z,13360
2016-12-23T11:26:41.876Z,13392
2016-12-23T11:27:42.055Z,12888
2016-12-23T11:28:41.863Z,11376
2016-12-23T11:29:42.252Z,10700
2016-12-23T11:30:41.946Z,11348
2016-12-23T11:31:43.331Z,11860
2016-12-23T11:32:41.939Z,11888
2016-12-23T11:33:41.990Z,11648
2016-12-23T11:34:42.049Z,12488
2016-12-23T11:35:42.240Z,11892
2016-12-23T11:36:41.960Z,11128
2016-12-23T11:37:41.981Z,10628
2016-12-23T11:38:42.076Z,10180
2016-12-23T11:39:42.209Z,10080
2016-12-23T11:40:42.300Z,10080
2016-12-23T11:41:42.000Z,10132
2016-12-23T11:42:42.066Z,10216
2016-12-23T11:43:42.228Z,10212
2016-12-23T11:44:42.012Z,10216
2016-12-23T11:45:42.770Z,10248
2016-12-23T11:46:42.079Z,10360
2016-12-23T11:47:42.305Z,10532
2016-12-23T11:48:42.044Z,10692
2016-12-23T11:49:43.375Z,10704
2016-12-23T11:50:42.454Z,11028
2016-12-23T11:51:42.473Z,11336
2016-12-23T11:52:42.300Z,11420
2016-12-23T11:53:42.396Z,11208
2016-12-23T11:54:42.277Z,10784
2016-12-23T11:55:42.344Z,10528
2016-12-23T11:56:42.338Z,10540
2016-12-23T11:57:43.093Z,10604
2016-12-23T11:58:42.121Z,10664
2016-12-23T11:59:42.403Z,10464
2016-12-23T12:00:42.312Z,10376
2016-12-23T12:01:42.359Z,10360
2016-12-23T12:02:42.265Z,10328
2016-12-23T12:03:42.220Z,10260
2016-12-23T12:04:42.181Z,10388
2016-12-23T12:05:42.263Z,10616
2016-12-23T12:06:42.057Z,10804
2016-12-23T12:07:42.198Z,10724
2016-12-23T12:08:42.216Z,10608
2016-12-23T12:09:42.195Z,10520
2016-12-23T12:10:42.021Z,10440
2016-12-23T12:11:42.294Z,10464
2016-12-23T12:12:42.451Z,10560
2016-12-23T12:13:42.240Z,10700
2016-12-23T12:14:42.472Z,10628
2016-12-23T12:15:42.469Z,10560
2016-12-23T12:16:42.197Z,10208
2016-12-23T12:17:42.560Z,9972
2016-12-23T12:18:43.233Z,9912
2016-12-23T12:19:42.641Z,10012
2016-12-23T12:20:42.159Z,9992
2016-12-23T12:21:42.620Z,9888
2016-12-23T12:22:42.528Z,9452
2016-12-23T12:23:42.463Z,9016
2016-12-23T12:24:42.348Z,8712
2016-12-23T12:25:42.952Z,8472
2016-12-23T12:26:42.145Z,8272
2016-12-23T12:27:42.430Z,8044
2016-12-23T12:28:42.201Z,7752
2016-12-23T12:29:43.471Z,7448
2016-12-23T12:30:42.753Z,7132
2016-12-23T12:31:42.490Z,6864
2016-12-23T12:32:42.394Z,6692
2016-12-23T12:33:43.317Z,6564
2016-12-23T12:34:45.358Z,6388
2016-12-23T12:35:42.647Z,6204
2016-12-23T12:36:42.444Z,6008
2016-12-23T12:37:42.499Z,5808
2016-12-23T12:38:42.846Z,5660
2016-12-23T12:39:42.387Z,5532
2016-12-23T12:40:43.132Z,5396
2016-12-23T12:41:42.766Z,5276
2016-12-23T12:42:42.594Z,5132
2016-12-23T12:43:42.492Z,4988
2016-12-23T12:44:43.430Z,4816
2016-12-23T12:45:42.539Z,4648
2016-12-23T12:46:42.821Z,4492
2016-12-23T12:47:43.133Z,4316
2016-12-23T12:48:42.785Z,4152
2016-12-23T12:49:42.320Z,4016
2016-12-23T12:50:42.424Z,3928
2016-12-23T12:51:42.415Z,3856
2016-12-23T12:52:42.591Z,3800
2016-12-23T12:53:42.635Z,3772
2016-12-23T12:54:42.903Z,3760
2016-12-23T12:55:42.664Z,3760
2016-12-23T12:56:42.385Z,3788
2016-12-23T12:57:42.531Z,3828
2016-12-23T12:58:42.463Z,3872
2016-12-23T12:59:42.418Z,3912
2016-12-23T13:00:42.348Z,3956
2016-12-23T13:01:42.523Z,3980
2016-12-23T13:02:42.891Z,4008
2016-12-23T13:03:42.565Z,4048
2016-12-23T13:04:42.382Z,4100
2016-12-23T13:05:42.502Z,4136
2016-12-23T13:06:42.485Z,4164
2016-12-23T13:11:12.455Z,4508
2016-12-23T13:12:12.216Z,4632
2016-12-23T13:13:12.238Z,4788
2016-12-23T13:14:12.848Z,4920
2016-12-23T13:15:12.875Z,5012
2016-12-23T13:16:12.212Z,5080
2016-12-23T13:17:12.417Z,5152
2016-12-23T13:18:12.003Z,5248
2016-12-23T13:19:12.352Z,5336
2016-12-23T13:20:12.311Z,5368
2016-12-23T13:21:12.726Z,5380
2016-12-23T13:22:12.569Z,5336
2016-12-23T13:23:11.835Z,5268
2016-12-23T13:24:12.535Z,5160
2016-12-23T13:25:11.905Z,5016
2016-12-23T13:26:12.002Z,4852
2016-12-23T13:27:12.345Z,4696
2016-12-23T13:28:12.232Z,4604
2016-12-23T13:29:12.271Z,4576
2016-12-23T13:30:12.620Z,4584
2016-12-23T13:31:12.164Z,4652
2016-12-23T13:32:12.509Z,4736
2016-12-23T13:33:12.081Z,4864
2016-12-23T13:34:12.128Z,5020
2016-12-23T13:35:12.848Z,5180
2016-12-23T13:36:12.101Z,5332
2016-12-23T13:37:12.534Z,5460
2016-12-23T13:38:12.529Z,5540
2016-12-23T13:39:12.319Z,5568
2016-12-23T13:40:12.306Z,5552
2016-12-23T13:41:12.181Z,5532
2016-12-23T13:42:12.310Z,5500
2016-12-23T13:43:12.337Z,5512
2016-12-23T13:44:12.295Z,5524
2016-12-23T13:45:12.009Z,5528
2016-12-23T13:46:12.094Z,5448
2016-12-23T13:47:12.273Z,5424
2016-12-23T13:48:12.158Z,5332
2016-12-23T13:49:12.397Z,5232
2016-12-23T13:50:12.310Z,5144
2016-12-23T13:51:12.292Z,5036
2016-12-23T13:52:12.303Z,5060
2016-12-23T13:53:13.054Z,5144
2016-12-23T13:54:12.349Z,5136
2016-12-23T13:55:12.456Z,5160
2016-12-23T13:56:12.652Z,5304
2016-12-23T13:57:12.505Z,5448
2016-12-23T13:58:12.314Z,5504
2016-12-23T13:59:12.498Z,5484
2016-12-23T14:00:12.400Z,5488
2016-12-23T14:01:12.290Z,5492
2016-12-23T14:02:12.583Z,5484
2016-12-23T14:03:12.278Z,5412
2016-12-23T14:04:12.143Z,5264
2016-12-23T14:05:12.136Z,5092
2016-12-23T14:06:13.074Z,4916
2016-12-23T14:07:12.207Z,4700
2016-12-23T14:08:12.818Z,4456
2016-12-23T14:09:12.433Z,4240
2016-12-23T14:10:12.591Z,4096
2016-12-23T14:11:12.204Z,4060
2016-12-23T14:12:12.239Z,4108
2016-12-23T14:13:12.104Z,4148
2016-12-23T14:14:12.106Z,4208
2016-12-23T14:15:12.176Z,4260
2016-12-23T14:16:12.436Z,4336
2016-12-23T14:17:12.283Z,4380
